sensor_id;sensor_type;location;lat;lon;timestamp;P1;durP1;ratioP1;P2;durP2;ratioP2
4206;SDS011;2117;47.972;7.830;2023-06-26T01:01:02;8.50;;;7.40;;
4206;SDS011;2117;47.972;7.830;2023-06-26T01:03:28;8.97;;;6.17;;
4206;SDS011;2117;47.972;7.830;2023-06-26T01:05:54;14.67;;;7.40;;
4206;SDS011;2117;47.972;7.830;2023-06-26T01:08:23;7.77;;;6.70;;
4206;SDS011;2117;47.972;7.830;2023-06-26T01:10:49;9.83;;;7.13;;
4206;SDS011;2117;47.972;7.830;2023-06-26T01:13:15;8.33;;;6.80;;
4206;SDS011;2117;47.972;7.830;2023-06-26T01:15:41;8.90;;;6.10;;
4206;SDS011;2117;47.972;7.830;2023-06-26T01:18:07;7.93;;;6.30;;
4206;SDS011;2117;47.972;7.830;2023-06-26T01:20:34;8.10;;;6.47;;
4206;SDS011;2117;47.972;7.830;2023-06-26T01:23:09;8.10;;;6.73;;
4206;SDS011;2117;47.972;7.830;2023-06-26T01:26:12;6.80;;;5.73;;
4206;SDS011;2117;47.972;7.830;2023-06-26T01:28:41;9.30;;;6.93;;
4206;SDS011;2117;47.972;7.830;2023-06-26T01:31:08;9.20;;;7.30;;
4206;SDS011;2117;47.972;7.830;2023-06-26T01:33:34;7.73;;;6.77;;
4206;SDS011;2117;47.972;7.830;2023-06-26T01:36:01;8.13;;;6.77;;
4206;SDS011;2117;47.972;7.830;2023-06-26T01:38:26;8.03;;;6.73;;
4206;SDS011;2117;47.972;7.830;2023-06-26T01:40:52;9.13;;;6.60;;
4206;SDS011;2117;47.972;7.830;2023-06-26T01:45:54;9.47;;;7.27;;
4206;SDS011;2117;47.972;7.830;2023-06-26T01:48:28;8.50;;;7.10;;
4206;SDS011;2117;47.972;7.830;2023-06-26T01:51:03;8.50;;;6.50;;
4206;SDS011;2117;47.972;7.830;2023-06-26T01:53:32;9.00;;;7.20;;
4206;SDS011;2117;47.972;7.830;2023-06-26T01:56:06;10.07;;;7.73;;
4206;SDS011;2117;47.972;7.830;2023-06-26T01:58:37;7.67;;;6.87;;
4206;SDS011;2117;47.972;7.830;2023-06-26T02:01:06;9.17;;;7.20;;
4206;SDS011;2117;47.972;7.830;2023-06-26T02:03:31;7.57;;;6.73;;
4206;SDS011;2117;47.972;7.830;2023-06-26T02:05:57;8.53;;;7.53;;
4206;SDS011;2117;47.972;7.830;2023-06-26T02:08:22;8.70;;;6.57;;
4206;SDS011;2117;47.972;7.830;2023-06-26T02:10:48;7.33;;;6.10;;
4206;SDS011;2117;47.972;7.830;2023-06-26T02:13:13;7.20;;;6.40;;
4206;SDS011;2117;47.972;7.830;2023-06-26T02:15:39;8.60;;;6.73;;
4206;SDS011;2117;47.972;7.830;2023-06-26T02:18:05;8.37;;;6.80;;
4206;SDS011;2117;47.972;7.830;2023-06-26T02:20:30;8.60;;;6.70;;
4206;SDS011;2117;47.972;7.830;2023-06-26T02:22:56;7.93;;;6.93;;
4206;SDS011;2117;47.972;7.830;2023-06-26T02:25:22;7.63;;;6.40;;
4206;SDS011;2117;47.972;7.830;2023-06-26T02:27:48;8.07;;;6.60;;
4206;SDS011;2117;47.972;7.830;2023-06-26T02:30:13;8.30;;;7.40;;
4206;SDS011;2117;47.972;7.830;2023-06-26T02:32:39;7.63;;;6.83;;
4206;SDS011;2117;47.972;7.830;2023-06-26T02:35:04;10.40;;;7.50;;
4206;SDS011;2117;47.972;7.830;2023-06-26T02:37:30;10.93;;;7.93;;
4206;SDS011;2117;47.972;7.830;2023-06-26T02:39:56;8.47;;;6.77;;
4206;SDS011;2117;47.972;7.830;2023-06-26T02:42:21;9.70;;;6.83;;
4206;SDS011;2117;47.972;7.830;2023-06-26T02:44:47;8.43;;;6.40;;
4206;SDS011;2117;47.972;7.830;2023-06-26T02:47:12;9.27;;;7.40;;
4206;SDS011;2117;47.972;7.830;2023-06-26T02:49:38;8.83;;;7.80;;
4206;SDS011;2117;47.972;7.830;2023-06-26T02:52:04;7.80;;;6.37;;
4206;SDS011;2117;47.972;7.830;2023-06-26T02:54:29;9.30;;;7.17;;
4206;SDS011;2117;47.972;7.830;2023-06-26T02:56:55;8.40;;;7.57;;
4206;SDS011;2117;47.972;7.830;2023-06-26T02:59:21;9.00;;;7.60;;
4206;SDS011;2117;47.972;7.830;2023-06-26T03:01:46;9.43;;;7.00;;
4206;SDS011;2117;47.972;7.830;2023-06-26T03:04:12;8.63;;;7.20;;
4206;SDS011;2117;47.972;7.830;2023-06-26T03:06:38;9.33;;;7.67;;
4206;SDS011;2117;47.972;7.830;2023-06-26T03:09:03;8.10;;;6.83;;
4206;SDS011;2117;47.972;7.830;2023-06-26T03:11:29;7.47;;;6.53;;
4206;SDS011;2117;47.972;7.830;2023-06-26T03:13:54;11.80;;;8.00;;
4206;SDS011;2117;47.972;7.830;2023-06-26T03:16:20;8.43;;;7.40;;
4206;SDS011;2117;47.972;7.830;2023-06-26T03:18:45;9.70;;;6.93;;
4206;SDS011;2117;47.972;7.830;2023-06-26T03:21:11;11.60;;;6.53;;
4206;SDS011;2117;47.972;7.830;2023-06-26T03:23:37;7.50;;;6.70;;
4206;SDS011;2117;47.972;7.830;2023-06-26T03:26:02;10.47;;;6.80;;
4206;SDS011;2117;47.972;7.830;2023-06-26T03:28:28;8.20;;;7.00;;
4206;SDS011;2117;47.972;7.830;2023-06-26T03:30:53;9.33;;;7.70;;
4206;SDS011;2117;47.972;7.830;2023-06-26T03:33:19;8.57;;;6.83;;
4206;SDS011;2117;47.972;7.830;2023-06-26T03:35:44;7.97;;;5.87;;
4206;SDS011;2117;47.972;7.830;2023-06-26T03:38:10;9.23;;;8.17;;
4206;SDS011;2117;47.972;7.830;2023-06-26T03:40:36;9.20;;;6.97;;
4206;SDS011;2117;47.972;7.830;2023-06-26T03:43:01;9.33;;;7.20;;
4206;SDS011;2117;47.972;7.830;2023-06-26T03:45:27;8.00;;;6.80;;
4206;SDS011;2117;47.972;7.830;2023-06-26T03:47:53;9.30;;;7.30;;
4206;SDS011;2117;47.972;7.830;2023-06-26T03:50:18;8.50;;;7.10;;
4206;SDS011;2117;47.972;7.830;2023-06-26T03:52:44;8.50;;;6.47;;
4206;SDS011;2117;47.972;7.830;2023-06-26T03:55:10;9.00;;;7.10;;
4206;SDS011;2117;47.972;7.830;2023-06-26T03:57:36;8.87;;;6.30;;
4206;SDS011;2117;47.972;7.830;2023-06-26T04:00:01;10.50;;;7.23;;
4206;SDS011;2117;47.972;7.830;2023-06-26T04:02:33;9.90;;;7.53;;
4206;SDS011;2117;47.972;7.830;2023-06-26T04:04:58;8.20;;;6.43;;
4206;SDS011;2117;47.972;7.830;2023-06-26T04:07:25;8.53;;;6.70;;
4206;SDS011;2117;47.972;7.830;2023-06-26T04:09:50;13.13;;;6.23;;
4206;SDS011;2117;47.972;7.830;2023-06-26T04:12:16;8.23;;;6.40;;
4206;SDS011;2117;47.972;7.830;2023-06-26T04:14:42;10.40;;;7.77;;
4206;SDS011;2117;47.972;7.830;2023-06-26T04:17:07;12.60;;;7.10;;
4206;SDS011;2117;47.972;7.830;2023-06-26T04:19:33;8.10;;;7.27;;
4206;SDS011;2117;47.972;7.830;2023-06-26T04:22:00;10.10;;;7.03;;
4206;SDS011;2117;47.972;7.830;2023-06-26T04:24:26;8.50;;;6.27;;
4206;SDS011;2117;47.972;7.830;2023-06-26T04:26:52;8.60;;;7.10;;
4206;SDS011;2117;47.972;7.830;2023-06-26T04:29:17;7.57;;;6.70;;
4206;SDS011;2117;47.972;7.830;2023-06-26T04:31:43;13.53;;;8.10;;
4206;SDS011;2117;47.972;7.830;2023-06-26T04:34:11;8.57;;;6.93;;
4206;SDS011;2117;47.972;7.830;2023-06-26T04:36:38;9.87;;;8.10;;
4206;SDS011;2117;47.972;7.830;2023-06-26T04:39:03;9.10;;;7.90;;
4206;SDS011;2117;47.972;7.830;2023-06-26T04:41:29;9.50;;;7.77;;
4206;SDS011;2117;47.972;7.830;2023-06-26T04:43:55;13.60;;;7.50;;
4206;SDS011;2117;47.972;7.830;2023-06-26T04:46:20;9.57;;;7.37;;
4206;SDS011;2117;47.972;7.830;2023-06-26T04:48:46;17.13;;;6.83;;
4206;SDS011;2117;47.972;7.830;2023-06-26T04:51:11;7.50;;;6.80;;
4206;SDS011;2117;47.972;7.830;2023-06-26T04:53:37;11.73;;;8.50;;
4206;SDS011;2117;47.972;7.830;2023-06-26T04:56:03;11.20;;;7.50;;
4206;SDS011;2117;47.972;7.830;2023-06-26T04:58:28;8.20;;;7.33;;
4206;SDS011;2117;47.972;7.830;2023-06-26T05:00:54;10.03;;;7.03;;
4206;SDS011;2117;47.972;7.830;2023-06-26T05:03:20;8.27;;;6.60;;
4206;SDS011;2117;47.972;7.830;2023-06-26T05:05:46;10.97;;;7.50;;
4206;SDS011;2117;47.972;7.830;2023-06-26T05:08:13;8.30;;;6.83;;
4206;SDS011;2117;47.972;7.830;2023-06-26T05:10:42;8.67;;;7.10;;
4206;SDS011;2117;47.972;7.830;2023-06-26T05:13:08;8.37;;;7.47;;
4206;SDS011;2117;47.972;7.830;2023-06-26T05:15:34;11.83;;;8.20;;
4206;SDS011;2117;47.972;7.830;2023-06-26T05:17:59;7.33;;;6.50;;
4206;SDS011;2117;47.972;7.830;2023-06-26T05:20:25;9.40;;;7.40;;
4206;SDS011;2117;47.972;7.830;2023-06-26T05:22:50;8.70;;;7.73;;
4206;SDS011;2117;47.972;7.830;2023-06-26T05:25:18;10.20;;;7.07;;
4206;SDS011;2117;47.972;7.830;2023-06-26T05:27:46;8.03;;;7.17;;
4206;SDS011;2117;47.972;7.830;2023-06-26T05:30:12;10.43;;;7.20;;
4206;SDS011;2117;47.972;7.830;2023-06-26T05:32:39;8.43;;;7.13;;
4206;SDS011;2117;47.972;7.830;2023-06-26T05:35:05;10.50;;;8.30;;
4206;SDS011;2117;47.972;7.830;2023-06-26T05:37:32;8.20;;;7.33;;
4206;SDS011;2117;47.972;7.830;2023-06-26T05:39:59;11.00;;;7.40;;
4206;SDS011;2117;47.972;7.830;2023-06-26T05:42:26;10.33;;;8.43;;
4206;SDS011;2117;47.972;7.830;2023-06-26T05:44:53;9.47;;;8.30;;
4206;SDS011;2117;47.972;7.830;2023-06-26T05:47:18;8.20;;;7.17;;
4206;SDS011;2117;47.972;7.830;2023-06-26T05:49:44;8.60;;;7.70;;
4206;SDS011;2117;47.972;7.830;2023-06-26T05:52:10;9.03;;;7.70;;
4206;SDS011;2117;47.972;7.830;2023-06-26T05:54:36;8.53;;;7.63;;
4206;SDS011;2117;47.972;7.830;2023-06-26T05:57:02;9.60;;;7.97;;
4206;SDS011;2117;47.972;7.830;2023-06-26T05:59:30;8.47;;;7.20;;
4206;SDS011;2117;47.972;7.830;2023-06-26T06:01:57;8.40;;;7.50;;
4206;SDS011;2117;47.972;7.830;2023-06-26T06:04:23;8.17;;;7.33;;
4206;SDS011;2117;47.972;7.830;2023-06-26T06:06:49;8.37;;;7.10;;
4206;SDS011;2117;47.972;7.830;2023-06-26T06:09:15;10.00;;;7.67;;
4206;SDS011;2117;47.972;7.830;2023-06-26T06:11:40;8.63;;;7.70;;
4206;SDS011;2117;47.972;7.830;2023-06-26T06:14:06;11.70;;;8.50;;
4206;SDS011;2117;47.972;7.830;2023-06-26T06:16:32;15.30;;;13.70;;
4206;SDS011;2117;47.972;7.830;2023-06-26T06:24:35;8.33;;;7.03;;
4206;SDS011;2117;47.972;7.830;2023-06-26T06:27:01;9.30;;;8.30;;
4206;SDS011;2117;47.972;7.830;2023-06-26T06:29:27;8.60;;;7.23;;
4206;SDS011;2117;47.972;7.830;2023-06-26T06:31:52;9.80;;;7.80;;
4206;SDS011;2117;47.972;7.830;2023-06-26T06:34:18;8.87;;;7.97;;
4206;SDS011;2117;47.972;7.830;2023-06-26T06:36:43;9.47;;;7.60;;
4206;SDS011;2117;47.972;7.830;2023-06-26T06:39:09;8.67;;;7.43;;
4206;SDS011;2117;47.972;7.830;2023-06-26T06:41:35;8.73;;;7.67;;
4206;SDS011;2117;47.972;7.830;2023-06-26T06:44:00;11.60;;;8.43;;
4206;SDS011;2117;47.972;7.830;2023-06-26T06:46:26;9.00;;;8.10;;
4206;SDS011;2117;47.972;7.830;2023-06-26T06:48:52;10.00;;;8.30;;
4206;SDS011;2117;47.972;7.830;2023-06-26T06:51:18;8.40;;;7.23;;
4206;SDS011;2117;47.972;7.830;2023-06-26T06:53:43;10.00;;;8.30;;
4206;SDS011;2117;47.972;7.830;2023-06-26T06:56:09;10.37;;;8.00;;
4206;SDS011;2117;47.972;7.830;2023-06-26T06:58:34;9.17;;;8.17;;
4206;SDS011;2117;47.972;7.830;2023-06-26T07:01:00;8.80;;;7.90;;
4206;SDS011;2117;47.972;7.830;2023-06-26T07:03:29;9.70;;;8.67;;
4206;SDS011;2117;47.972;7.830;2023-06-26T07:05:55;9.33;;;8.33;;
4206;SDS011;2117;47.972;7.830;2023-06-26T07:08:21;9.07;;;8.17;;
4206;SDS011;2117;47.972;7.830;2023-06-26T07:10:46;8.93;;;8.03;;
4206;SDS011;2117;47.972;7.830;2023-06-26T07:13:12;9.80;;;7.97;;
4206;SDS011;2117;47.972;7.830;2023-06-26T07:15:37;9.83;;;8.83;;
4206;SDS011;2117;47.972;7.830;2023-06-26T07:18:03;9.63;;;8.27;;
4206;SDS011;2117;47.972;7.830;2023-06-26T07:20:29;8.77;;;7.70;;
4206;SDS011;2117;47.972;7.830;2023-06-26T07:22:54;10.37;;;7.90;;
4206;SDS011;2117;47.972;7.830;2023-06-26T07:25:20;8.70;;;7.77;;
4206;SDS011;2117;47.972;7.830;2023-06-26T07:27:45;10.40;;;8.30;;
4206;SDS011;2117;47.972;7.830;2023-06-26T07:30:11;10.37;;;8.00;;
4206;SDS011;2117;47.972;7.830;2023-06-26T07:32:37;16.23;;;7.50;;
4206;SDS011;2117;47.972;7.830;2023-06-26T07:35:03;8.37;;;7.57;;
4206;SDS011;2117;47.972;7.830;2023-06-26T07:37:29;9.57;;;7.77;;
4206;SDS011;2117;47.972;7.830;2023-06-26T07:39:55;10.60;;;9.50;;
4206;SDS011;2117;47.972;7.830;2023-06-26T07:42:22;16.10;;;7.50;;
4206;SDS011;2117;47.972;7.830;2023-06-26T07:44:48;10.93;;;8.37;;
4206;SDS011;2117;47.972;7.830;2023-06-26T07:47:13;11.67;;;8.40;;
4206;SDS011;2117;47.972;7.830;2023-06-26T07:49:39;9.20;;;8.30;;
4206;SDS011;2117;47.972;7.830;2023-06-26T07:52:05;9.10;;;7.87;;
4206;SDS011;2117;47.972;7.830;2023-06-26T07:54:31;10.60;;;8.23;;
4206;SDS011;2117;47.972;7.830;2023-06-26T07:56:58;9.43;;;8.40;;
4206;SDS011;2117;47.972;7.830;2023-06-26T07:59:26;12.30;;;8.47;;
4206;SDS011;2117;47.972;7.830;2023-06-26T08:01:53;10.47;;;9.40;;
4206;SDS011;2117;47.972;7.830;2023-06-26T08:04:21;9.90;;;9.00;;
4206;SDS011;2117;47.972;7.830;2023-06-26T08:06:48;9.30;;;8.03;;
4206;SDS011;2117;47.972;7.830;2023-06-26T08:09:18;8.90;;;8.10;;
4206;SDS011;2117;47.972;7.830;2023-06-26T08:11:45;12.33;;;8.80;;
4206;SDS011;2117;47.972;7.830;2023-06-26T08:14:11;8.97;;;8.03;;
4206;SDS011;2117;47.972;7.830;2023-06-26T08:16:40;9.83;;;8.87;;
4206;SDS011;2117;47.972;7.830;2023-06-26T08:19:07;9.73;;;8.70;;
4206;SDS011;2117;47.972;7.830;2023-06-26T08:21:33;10.23;;;8.60;;
4206;SDS011;2117;47.972;7.830;2023-06-26T08:23:59;11.33;;;7.70;;
4206;SDS011;2117;47.972;7.830;2023-06-26T08:26:24;11.83;;;8.60;;
4206;SDS011;2117;47.972;7.830;2023-06-26T08:28:50;13.03;;;8.83;;
4206;SDS011;2117;47.972;7.830;2023-06-26T08:31:16;8.70;;;7.80;;
4206;SDS011;2117;47.972;7.830;2023-06-26T08:33:42;11.20;;;8.13;;
4206;SDS011;2117;47.972;7.830;2023-06-26T08:36:08;8.93;;;8.03;;
4206;SDS011;2117;47.972;7.830;2023-06-26T08:38:33;8.07;;;7.27;;
4206;SDS011;2117;47.972;7.830;2023-06-26T08:40:59;11.77;;;10.03;;
4206;SDS011;2117;47.972;7.830;2023-06-26T08:43:25;11.30;;;9.37;;
4206;SDS011;2117;47.972;7.830;2023-06-26T08:45:52;13.13;;;9.00;;
4206;SDS011;2117;47.972;7.830;2023-06-26T08:48:18;10.10;;;8.40;;
4206;SDS011;2117;47.972;7.830;2023-06-26T08:50:45;12.00;;;10.20;;
4206;SDS011;2117;47.972;7.830;2023-06-26T08:53:17;11.50;;;9.47;;
4206;SDS011;2117;47.972;7.830;2023-06-26T08:55:48;11.40;;;9.77;;
4206;SDS011;2117;47.972;7.830;2023-06-26T08:58:17;10.17;;;9.17;;
4206;SDS011;2117;47.972;7.830;2023-06-26T09:00:43;9.53;;;8.63;;
4206;SDS011;2117;47.972;7.830;2023-06-26T09:03:09;14.80;;;8.60;;
4206;SDS011;2117;47.972;7.830;2023-06-26T09:05:35;9.83;;;8.70;;
4206;SDS011;2117;47.972;7.830;2023-06-26T09:08:01;10.53;;;9.43;;
4206;SDS011;2117;47.972;7.830;2023-06-26T09:10:27;13.73;;;10.20;;
4206;SDS011;2117;47.972;7.830;2023-06-26T09:12:55;11.63;;;9.10;;
4206;SDS011;2117;47.972;7.830;2023-06-26T09:15:22;12.33;;;10.07;;
4206;SDS011;2117;47.972;7.830;2023-06-26T09:17:48;13.10;;;9.00;;
4206;SDS011;2117;47.972;7.830;2023-06-26T09:20:14;12.40;;;10.23;;
4206;SDS011;2117;47.972;7.830;2023-06-26T09:22:41;11.60;;;10.07;;
4206;SDS011;2117;47.972;7.830;2023-06-26T09:25:11;12.90;;;9.93;;
4206;SDS011;2117;47.972;7.830;2023-06-26T09:27:37;10.60;;;9.50;;
4206;SDS011;2117;47.972;7.830;2023-06-26T09:30:03;12.03;;;9.90;;
4206;SDS011;2117;47.972;7.830;2023-06-26T09:32:37;10.87;;;9.87;;
4206;SDS011;2117;47.972;7.830;2023-06-26T09:35:03;12.47;;;11.30;;
4206;SDS011;2117;47.972;7.830;2023-06-26T09:37:29;13.73;;;9.70;;
4206;SDS011;2117;47.972;7.830;2023-06-26T09:39:55;11.27;;;10.17;;
4206;SDS011;2117;47.972;7.830;2023-06-26T09:42:20;10.73;;;9.63;;
4206;SDS011;2117;47.972;7.830;2023-06-26T09:44:47;15.13;;;11.27;;
4206;SDS011;2117;47.972;7.830;2023-06-26T09:47:15;15.00;;;9.73;;
4206;SDS011;2117;47.972;7.830;2023-06-26T09:49:42;14.43;;;10.83;;
4206;SDS011;2117;47.972;7.830;2023-06-26T09:52:08;12.30;;;9.90;;
4206;SDS011;2117;47.972;7.830;2023-06-26T09:54:34;12.03;;;10.30;;
4206;SDS011;2117;47.972;7.830;2023-06-26T09:57:09;11.70;;;10.50;;
4206;SDS011;2117;47.972;7.830;2023-06-26T09:59:36;13.07;;;11.60;;
4206;SDS011;2117;47.972;7.830;2023-06-26T10:02:02;11.17;;;9.87;;
4206;SDS011;2117;47.972;7.830;2023-06-26T10:04:28;19.10;;;10.90;;
4206;SDS011;2117;47.972;7.830;2023-06-26T10:06:56;11.80;;;10.53;;
4206;SDS011;2117;47.972;7.830;2023-06-26T10:09:25;13.00;;;11.70;;
4206;SDS011;2117;47.972;7.830;2023-06-26T10:11:59;16.07;;;9.93;;
4206;SDS011;2117;47.972;7.830;2023-06-26T10:14:31;13.07;;;11.00;;
4206;SDS011;2117;47.972;7.830;2023-06-26T10:17:13;13.07;;;10.87;;
4206;SDS011;2117;47.972;7.830;2023-06-26T10:19:44;14.20;;;9.80;;
4206;SDS011;2117;47.972;7.830;2023-06-26T10:22:11;14.83;;;11.00;;
4206;SDS011;2117;47.972;7.830;2023-06-26T10:24:41;12.60;;;10.77;;
4206;SDS011;2117;47.972;7.830;2023-06-26T10:27:09;16.93;;;10.70;;
4206;SDS011;2117;47.972;7.830;2023-06-26T10:29:41;11.20;;;10.10;;
4206;SDS011;2117;47.972;7.830;2023-06-26T10:32:07;16.00;;;10.97;;
4206;SDS011;2117;47.972;7.830;2023-06-26T10:34:36;12.80;;;11.50;;
4206;SDS011;2117;47.972;7.830;2023-06-26T10:37:02;13.23;;;11.90;;
4206;SDS011;2117;47.972;7.830;2023-06-26T10:42:15;14.20;;;11.83;;
4206;SDS011;2117;47.972;7.830;2023-06-26T10:44:45;11.73;;;10.63;;
4206;SDS011;2117;47.972;7.830;2023-06-26T10:47:12;14.27;;;11.53;;
4206;SDS011;2117;47.972;7.830;2023-06-26T10:49:57;10.90;;;9.80;;
4206;SDS011;2117;47.972;7.830;2023-06-26T10:52:45;13.23;;;11.10;;
4206;SDS011;2117;47.972;7.830;2023-06-26T10:55:31;12.97;;;11.20;;
4206;SDS011;2117;47.972;7.830;2023-06-26T10:57:56;12.87;;;10.90;;
4206;SDS011;2117;47.972;7.830;2023-06-26T11:00:22;12.13;;;10.90;;
4206;SDS011;2117;47.972;7.830;2023-06-26T11:02:48;12.60;;;11.30;;
4206;SDS011;2117;47.972;7.830;2023-06-26T11:05:28;14.63;;;11.37;;
4206;SDS011;2117;47.972;7.830;2023-06-26T11:10:30;12.73;;;11.50;;
4206;SDS011;2117;47.972;7.830;2023-06-26T11:13:13;12.83;;;11.53;;
4206;SDS011;2117;47.972;7.830;2023-06-26T11:15:42;11.77;;;10.57;;
4206;SDS011;2117;47.972;7.830;2023-06-26T11:18:09;13.17;;;11.77;;
4206;SDS011;2117;47.972;7.830;2023-06-26T11:20:35;13.47;;;11.33;;
4206;SDS011;2117;47.972;7.830;2023-06-26T11:23:01;13.90;;;11.90;;
4206;SDS011;2117;47.972;7.830;2023-06-26T11:25:29;12.77;;;11.57;;
4206;SDS011;2117;47.972;7.830;2023-06-26T11:27:55;13.35;;;11.85;;
4206;SDS011;2117;47.972;7.830;2023-06-26T11:30:24;14.90;;;12.10;;
4206;SDS011;2117;47.972;7.830;2023-06-26T11:32:51;12.98;;;11.68;;
4206;SDS011;2117;47.972;7.830;2023-06-26T11:35:23;13.35;;;11.93;;
4206;SDS011;2117;47.972;7.830;2023-06-26T11:38:02;16.77;;;11.70;;
4206;SDS011;2117;47.972;7.830;2023-06-26T11:40:35;13.60;;;12.07;;
4206;SDS011;2117;47.972;7.830;2023-06-26T11:43:02;14.03;;;12.63;;
4206;SDS011;2117;47.972;7.830;2023-06-26T11:45:31;14.00;;;12.65;;
4206;SDS011;2117;47.972;7.830;2023-06-26T11:47:57;11.07;;;10.07;;
4206;SDS011;2117;47.972;7.830;2023-06-26T11:50:24;13.93;;;12.63;;
4206;SDS011;2117;47.972;7.830;2023-06-26T11:52:54;14.40;;;12.98;;
4206;SDS011;2117;47.972;7.830;2023-06-26T11:55:22;13.85;;;11.88;;
4206;SDS011;2117;47.972;7.830;2023-06-26T11:57:54;14.27;;;12.63;;
4206;SDS011;2117;47.972;7.830;2023-06-26T12:00:21;18.73;;;12.30;;
4206;SDS011;2117;47.972;7.830;2023-06-26T12:02:47;13.10;;;11.90;;
4206;SDS011;2117;47.972;7.830;2023-06-26T12:05:15;14.53;;;13.03;;
4206;SDS011;2117;47.972;7.830;2023-06-26T12:07:42;13.93;;;12.60;;
4206;SDS011;2117;47.972;7.830;2023-06-26T12:10:11;14.67;;;12.47;;
4206;SDS011;2117;47.972;7.830;2023-06-26T12:12:38;14.87;;;11.87;;
4206;SDS011;2117;47.972;7.830;2023-06-26T12:15:05;12.90;;;10.00;;
4206;SDS011;2117;47.972;7.830;2023-06-26T12:17:32;10.23;;;9.10;;
4206;SDS011;2117;47.972;7.830;2023-06-26T12:19:58;10.87;;;9.77;;
4206;SDS011;2117;47.972;7.830;2023-06-26T12:22:23;11.20;;;9.90;;
4206;SDS011;2117;47.972;7.830;2023-06-26T12:24:49;11.27;;;9.13;;
4206;SDS011;2117;47.972;7.830;2023-06-26T12:27:15;13.33;;;8.70;;
4206;SDS011;2117;47.972;7.830;2023-06-26T12:29:52;10.30;;;9.30;;
4206;SDS011;2117;47.972;7.830;2023-06-26T12:32:19;9.50;;;8.50;;
4206;SDS011;2117;47.972;7.830;2023-06-26T12:34:47;13.37;;;9.10;;
4206;SDS011;2117;47.972;7.830;2023-06-26T12:37:15;11.37;;;10.13;;
4206;SDS011;2117;47.972;7.830;2023-06-26T12:39:51;10.70;;;8.70;;
4206;SDS011;2117;47.972;7.830;2023-06-26T12:42:21;9.27;;;7.40;;
4206;SDS011;2117;47.972;7.830;2023-06-26T12:44:48;10.10;;;9.20;;
4206;SDS011;2117;47.972;7.830;2023-06-26T12:47:15;12.77;;;9.00;;
4206;SDS011;2117;47.972;7.830;2023-06-26T12:49:42;11.33;;;9.10;;
4206;SDS011;2117;47.972;7.830;2023-06-26T12:52:13;11.00;;;9.87;;
4206;SDS011;2117;47.972;7.830;2023-06-26T12:54:41;12.43;;;9.93;;
4206;SDS011;2117;47.972;7.830;2023-06-26T12:57:07;14.40;;;10.40;;
4206;SDS011;2117;47.972;7.830;2023-06-26T12:59:37;19.00;;;11.53;;
4206;SDS011;2117;47.972;7.830;2023-06-26T13:02:03;9.23;;;8.23;;
4206;SDS011;2117;47.972;7.830;2023-06-26T13:04:29;10.50;;;9.40;;
4206;SDS011;2117;47.972;7.830;2023-06-26T13:06:56;10.23;;;8.97;;
4206;SDS011;2117;47.972;7.830;2023-06-26T13:09:22;10.47;;;9.40;;
4206;SDS011;2117;47.972;7.830;2023-06-26T13:11:49;10.30;;;8.77;;
4206;SDS011;2117;47.972;7.830;2023-06-26T13:14:14;10.70;;;9.03;;
4206;SDS011;2117;47.972;7.830;2023-06-26T13:16:40;9.50;;;8.60;;
4206;SDS011;2117;47.972;7.830;2023-06-26T13:19:06;19.63;;;9.50;;
4206;SDS011;2117;47.972;7.830;2023-06-26T13:21:32;12.03;;;7.80;;
4206;SDS011;2117;47.972;7.830;2023-06-26T13:23:58;10.53;;;8.13;;
4206;SDS011;2117;47.972;7.830;2023-06-26T13:26:24;8.43;;;7.60;;
4206;SDS011;2117;47.972;7.830;2023-06-26T13:28:51;7.83;;;7.13;;
4206;SDS011;2117;47.972;7.830;2023-06-26T13:31:17;11.00;;;9.20;;
4206;SDS011;2117;47.972;7.830;2023-06-26T13:33:44;10.67;;;8.40;;
4206;SDS011;2117;47.972;7.830;2023-06-26T13:36:10;11.13;;;7.70;;
4206;SDS011;2117;47.972;7.830;2023-06-26T13:38:37;10.33;;;7.30;;
4206;SDS011;2117;47.972;7.830;2023-06-26T13:41:02;8.57;;;7.30;;
4206;SDS011;2117;47.972;7.830;2023-06-26T13:43:28;11.33;;;7.80;;
4206;SDS011;2117;47.972;7.830;2023-06-26T13:45:54;11.50;;;7.20;;
4206;SDS011;2117;47.972;7.830;2023-06-26T13:48:20;9.80;;;6.60;;
4206;SDS011;2117;47.972;7.830;2023-06-26T13:50:47;10.07;;;7.20;;
4206;SDS011;2117;47.972;7.830;2023-06-26T13:53:12;11.57;;;7.40;;
4206;SDS011;2117;47.972;7.830;2023-06-26T13:55:38;8.40;;;7.60;;
4206;SDS011;2117;47.972;7.830;2023-06-26T13:58:05;9.83;;;8.47;;
4206;SDS011;2117;47.972;7.830;2023-06-26T14:00:31;8.53;;;7.63;;
4206;SDS011;2117;47.972;7.830;2023-06-26T14:02:59;8.40;;;7.50;;
4206;SDS011;2117;47.972;7.830;2023-06-26T14:05:32;8.20;;;6.90;;
4206;SDS011;2117;47.972;7.830;2023-06-26T14:08:04;8.53;;;7.53;;
4206;SDS011;2117;47.972;7.830;2023-06-26T14:10:30;9.23;;;7.60;;
4206;SDS011;2117;47.972;7.830;2023-06-26T14:12:58;11.70;;;7.23;;
4206;SDS011;2117;47.972;7.830;2023-06-26T14:15:24;7.90;;;6.50;;
4206;SDS011;2117;47.972;7.830;2023-06-26T14:17:49;9.57;;;7.37;;
4206;SDS011;2117;47.972;7.830;2023-06-26T14:20:16;7.00;;;6.30;;
4206;SDS011;2117;47.972;7.830;2023-06-26T14:22:42;8.70;;;6.75;;
4206;SDS011;2117;47.972;7.830;2023-06-26T14:25:11;9.27;;;6.30;;
4206;SDS011;2117;47.972;7.830;2023-06-26T14:27:38;7.22;;;6.03;;
4206;SDS011;2117;47.972;7.830;2023-06-26T14:30:04;12.30;;;7.32;;
4206;SDS011;2117;47.972;7.830;2023-06-26T14:32:30;9.05;;;8.15;;
4206;SDS011;2117;47.972;7.830;2023-06-26T14:34:56;9.43;;;6.72;;
4206;SDS011;2117;47.972;7.830;2023-06-26T14:37:22;6.93;;;6.23;;
4206;SDS011;2117;47.972;7.830;2023-06-26T14:39:49;7.30;;;5.93;;
4206;SDS011;2117;47.972;7.830;2023-06-26T14:42:15;7.50;;;5.87;;
4206;SDS011;2117;47.972;7.830;2023-06-26T14:44:41;18.53;;;7.13;;
4206;SDS011;2117;47.972;7.830;2023-06-26T14:47:06;7.47;;;5.83;;
4206;SDS011;2117;47.972;7.830;2023-06-26T14:49:32;10.57;;;6.03;;
4206;SDS011;2117;47.972;7.830;2023-06-26T14:51:58;8.60;;;5.30;;
4206;SDS011;2117;47.972;7.830;2023-06-26T14:54:23;10.27;;;5.90;;
4206;SDS011;2117;47.972;7.830;2023-06-26T14:56:49;7.70;;;5.20;;
4206;SDS011;2117;47.972;7.830;2023-06-26T14:59:15;7.53;;;5.40;;
4206;SDS011;2117;47.972;7.830;2023-06-26T15:01:40;5.83;;;4.70;;
4206;SDS011;2117;47.972;7.830;2023-06-26T15:04:06;6.27;;;5.40;;
4206;SDS011;2117;47.972;7.830;2023-06-26T15:06:32;8.47;;;6.40;;
4206;SDS011;2117;47.972;7.830;2023-06-26T15:08:58;7.90;;;6.00;;
4206;SDS011;2117;47.972;7.830;2023-06-26T15:11:24;9.57;;;6.70;;
4206;SDS011;2117;47.972;7.830;2023-06-26T15:13:50;10.70;;;6.30;;
4206;SDS011;2117;47.972;7.830;2023-06-26T15:16:15;7.57;;;6.20;;
4206;SDS011;2117;47.972;7.830;2023-06-26T15:18:41;10.50;;;5.17;;
4206;SDS011;2117;47.972;7.830;2023-06-26T15:21:07;12.50;;;6.03;;
4206;SDS011;2117;47.972;7.830;2023-06-26T15:23:33;8.83;;;7.00;;
4206;SDS011;2117;47.972;7.830;2023-06-26T15:25:59;7.77;;;5.60;;
4206;SDS011;2117;47.972;7.830;2023-06-26T15:28:25;6.90;;;6.20;;
4206;SDS011;2117;47.972;7.830;2023-06-26T15:30:50;7.40;;;6.03;;
4206;SDS011;2117;47.972;7.830;2023-06-26T15:33:16;8.20;;;5.83;;
4206;SDS011;2117;47.972;7.830;2023-06-26T15:35:42;14.33;;;6.83;;
4206;SDS011;2117;47.972;7.830;2023-06-26T15:38:07;7.77;;;6.47;;
4206;SDS011;2117;47.972;7.830;2023-06-26T15:40:33;8.67;;;6.60;;
4206;SDS011;2117;47.972;7.830;2023-06-26T15:42:59;7.00;;;6.27;;
4206;SDS011;2117;47.972;7.830;2023-06-26T15:45:24;8.63;;;6.30;;
4206;SDS011;2117;47.972;7.830;2023-06-26T15:47:51;10.33;;;6.50;;
4206;SDS011;2117;47.972;7.830;2023-06-26T15:50:17;8.30;;;6.20;;
4206;SDS011;2117;47.972;7.830;2023-06-26T15:52:46;7.10;;;6.40;;
4206;SDS011;2117;47.972;7.830;2023-06-26T15:55:13;8.33;;;7.27;;
4206;SDS011;2117;47.972;7.830;2023-06-26T15:57:38;9.13;;;7.33;;
4206;SDS011;2117;47.972;7.830;2023-06-26T16:00:04;9.30;;;8.10;;
4206;SDS011;2117;47.972;7.830;2023-06-26T16:02:30;10.20;;;9.10;;
4206;SDS011;2117;47.972;7.830;2023-06-26T16:04:56;8.87;;;7.90;;
4206;SDS011;2117;47.972;7.830;2023-06-26T16:07:22;9.30;;;8.20;;
4206;SDS011;2117;47.972;7.830;2023-06-26T16:09:48;10.43;;;8.70;;
4206;SDS011;2117;47.972;7.830;2023-06-26T16:12:14;9.90;;;8.87;;
4206;SDS011;2117;47.972;7.830;2023-06-26T16:14:40;11.00;;;9.67;;
4206;SDS011;2117;47.972;7.830;2023-06-26T16:17:06;13.70;;;10.47;;